createdAt,value
2022-08-18T00:02:07.263Z,20.77
2022-08-18T00:04:42.655Z,21.60
2022-08-18T00:07:18.032Z,21.55
2022-08-18T00:09:47.796Z,20.90
2022-08-18T00:12:17.804Z,21.73
2022-08-18T00:14:48.202Z,20.50
2022-08-18T00:17:17.222Z,19.63
2022-08-18T00:19:48.164Z,19.98
2022-08-18T00:22:19.078Z,21.08
2022-08-18T00:24:49.357Z,20.40
2022-08-18T00:27:23.067Z,20.52
2022-08-18T00:29:54.435Z,20.77
2022-08-18T00:32:24.403Z,20.55
2022-08-18T00:34:52.926Z,20.67
2022-08-18T00:37:21.252Z,20.08
2022-08-18T00:39:52.199Z,19.58
2022-08-18T00:42:29.920Z,20.38
2022-08-18T00:45:03.004Z,20.00
2022-08-18T00:47:32.868Z,22.45
2022-08-18T00:50:15.186Z,20.33
2022-08-18T00:52:44.689Z,20.20
2022-08-18T00:55:13.044Z,20.15
2022-08-18T00:57:42.457Z,19.58
2022-08-18T01:00:13.389Z,21.05
2022-08-18T01:02:44.354Z,20.83
2022-08-18T01:05:15.835Z,20.98
2022-08-18T01:07:45.856Z,20.17
2022-08-18T01:10:16.482Z,20.50
2022-08-18T01:12:46.893Z,22.92
2022-08-18T01:15:28.777Z,20.38
2022-08-18T01:18:16.447Z,20.40
2022-08-18T01:21:15.968Z,20.58
2022-08-18T01:23:46.116Z,19.50
2022-08-18T01:26:14.227Z,19.60
2022-08-18T01:28:43.560Z,21.23
2022-08-18T01:31:12.103Z,20.75
2022-08-18T01:33:41.266Z,20.77
2022-08-18T01:36:16.598Z,20.67
2022-08-18T01:38:47.192Z,21.55
2022-08-18T01:41:26.383Z,21.52
2022-08-18T01:43:56.521Z,21.88
2022-08-18T01:46:24.859Z,20.95
2022-08-18T01:48:53.705Z,21.42
2022-08-18T01:51:39.849Z,21.67
2022-08-18T01:54:10.855Z,21.88
2022-08-18T01:56:39.225Z,22.17
2022-08-18T01:59:07.790Z,21.77
2022-08-18T02:01:48.325Z,22.20
2022-08-18T02:04:37.108Z,23.13
2022-08-18T02:07:08.005Z,22.00
2022-08-18T02:09:38.420Z,23.00
2022-08-18T02:12:07.643Z,22.45
2022-08-18T02:14:36.044Z,23.10
2022-08-18T02:17:05.643Z,22.45
2022-08-18T02:19:34.762Z,23.27
2022-08-18T02:22:03.595Z,23.05
2022-08-18T02:24:31.955Z,23.02
2022-08-18T02:27:01.739Z,22.00
2022-08-18T02:29:30.079Z,20.98
2022-08-18T02:31:58.481Z,22.10
2022-08-18T02:34:26.787Z,21.60
2022-08-18T02:36:55.226Z,21.45
2022-08-18T02:39:23.545Z,22.27
2022-08-18T02:41:51.874Z,22.52
2022-08-18T02:44:21.796Z,23.15
2022-08-18T02:46:53.769Z,22.00
2022-08-18T02:49:22.126Z,22.48
2022-08-18T02:51:51.144Z,23.13
2022-08-18T02:54:20.451Z,24.00
2022-08-18T02:56:50.204Z,23.67
2022-08-18T02:59:19.917Z,23.50
2022-08-18T03:01:50.929Z,22.55
2022-08-18T03:04:23.991Z,24.38
2022-08-18T03:06:56.084Z,25.13
2022-08-18T03:09:24.473Z,24.30
2022-08-18T03:11:53.564Z,25.60
2022-08-18T03:14:22.426Z,24.13
2022-08-18T03:16:54.825Z,25.13
2022-08-18T03:19:24.085Z,23.90
2022-08-18T03:21:52.896Z,23.02
2022-08-18T03:24:22.317Z,21.55
2022-08-18T03:26:51.368Z,22.10
2022-08-18T03:29:19.712Z,21.42
2022-08-18T03:31:48.935Z,20.70
2022-08-18T03:34:20.496Z,22.27
2022-08-18T03:36:49.256Z,22.10
2022-08-18T03:39:18.010Z,22.63
2022-08-18T03:42:00.199Z,20.63
2022-08-18T03:44:30.627Z,20.17
2022-08-18T03:46:59.128Z,20.48
2022-08-18T03:49:28.828Z,20.67
2022-08-18T03:52:00.149Z,21.10
2022-08-18T03:54:28.695Z,21.10
2022-08-18T03:59:43.634Z,21.80
2022-08-18T04:02:12.512Z,20.85
2022-08-18T04:04:43.206Z,23.10
2022-08-18T04:07:14.340Z,23.50
2022-08-18T04:09:43.116Z,24.80
2022-08-18T04:12:16.295Z,24.67
2022-08-18T04:14:48.009Z,23.98
2022-08-18T04:17:16.872Z,23.52
2022-08-18T04:19:47.014Z,25.63
2022-08-18T04:22:18.363Z,24.10
2022-08-18T04:24:47.374Z,22.88
2022-08-18T04:27:18.521Z,23.98
2022-08-18T04:29:46.926Z,21.58
2022-08-18T04:32:15.276Z,22.95
2022-08-18T04:34:43.612Z,24.27
2022-08-18T04:37:15.465Z,22.13
2022-08-18T04:39:44.044Z,24.00
2022-08-18T04:42:12.468Z,23.20
2022-08-18T04:44:41.050Z,22.63
2022-08-18T04:47:10.138Z,23.38
2022-08-18T04:49:39.081Z,23.63
2022-08-18T04:52:38.015Z,24.60
2022-08-18T04:55:11.462Z,25.45
2022-08-18T04:57:39.881Z,23.08
2022-08-18T05:00:13.693Z,23.58
2022-08-18T05:02:42.242Z,22.63
2022-08-18T05:05:11.248Z,24.40
2022-08-18T05:07:44.881Z,22.88
2022-08-18T05:10:17.544Z,25.90
2022-08-18T05:12:48.179Z,24.77
2022-08-18T05:15:17.705Z,28.00
2022-08-18T05:17:46.950Z,26.92
2022-08-18T05:20:19.215Z,27.83
2022-08-18T05:22:47.972Z,25.33
2022-08-18T05:28:03.451Z,25.45
2022-08-18T05:30:31.770Z,25.67
2022-08-18T05:33:01.363Z,23.23
2022-08-18T05:35:32.662Z,25.48
2022-08-18T05:38:20.128Z,24.40
2022-08-18T05:40:58.161Z,25.95
2022-08-18T05:43:26.548Z,27.73
2022-08-18T05:45:56.972Z,25.00
2022-08-18T05:48:25.329Z,28.13
2022-08-18T05:50:53.674Z,29.33
2022-08-18T05:53:42.209Z,27.33
2022-08-18T05:56:41.966Z,24.98
2022-08-18T05:59:10.481Z,23.58
2022-08-18T06:01:42.606Z,26.23
2022-08-18T06:04:14.986Z,25.35
2022-08-18T06:06:47.492Z,24.27
2022-08-18T06:09:27.860Z,23.52
2022-08-18T06:12:05.955Z,23.33
2022-08-18T06:14:34.288Z,25.48
2022-08-18T06:17:07.576Z,22.20
2022-08-18T06:19:42.837Z,23.23
2022-08-18T06:22:18.344Z,20.58
2022-08-18T06:24:50.190Z,21.20
2022-08-18T06:27:23.632Z,21.48
2022-08-18T06:29:56.817Z,20.65
2022-08-18T06:32:29.712Z,21.40
2022-08-18T06:35:09.132Z,20.33
2022-08-18T06:38:00.883Z,19.02
2022-08-18T06:40:29.786Z,20.52
2022-08-18T06:43:02.224Z,19.85
2022-08-18T06:45:36.429Z,17.95
2022-08-18T06:48:15.231Z,19.15
2022-08-18T06:50:48.583Z,19.45
2022-08-18T06:53:26.868Z,18.00
2022-08-18T06:55:56.984Z,17.20
2022-08-18T06:58:30.455Z,16.70
2022-08-18T07:01:01.545Z,16.20
2022-08-18T07:03:43.297Z,16.50
2022-08-18T07:06:12.744Z,15.88
2022-08-18T07:08:42.722Z,15.77
2022-08-18T07:11:15.692Z,15.80
2022-08-18T07:13:58.570Z,16.02
2022-08-18T07:19:29.991Z,14.35
2022-08-18T07:22:03.552Z,15.00
2022-08-18T07:24:33.661Z,15.60
2022-08-18T07:27:03.013Z,14.48
2022-08-18T07:29:34.405Z,15.13
2022-08-18T07:32:05.137Z,14.27
2022-08-18T07:34:36.537Z,14.38
2022-08-18T07:37:07.339Z,13.88
2022-08-18T07:39:38.687Z,14.30
2022-08-18T07:42:37.137Z,13.90
2022-08-18T07:45:11.407Z,13.70
2022-08-18T07:47:44.517Z,13.30
2022-08-18T07:50:27.265Z,13.45
2022-08-18T07:53:05.133Z,13.32
2022-08-18T07:55:37.031Z,12.57
2022-08-18T07:58:14.464Z,13.18
2022-08-18T08:00:59.709Z,12.95
2022-08-18T08:03:33.225Z,12.35
2022-08-18T08:06:04.651Z,12.23
2022-08-18T08:08:39.804Z,12.20
2022-08-18T08:11:15.634Z,11.85
2022-08-18T08:13:55.603Z,10.90
2022-08-18T08:16:29.990Z,10.38
2022-08-18T08:19:02.234Z,10.68
2022-08-18T08:21:42.212Z,9.80
2022-08-18T08:24:12.816Z,10.73
2022-08-18T08:26:47.999Z,10.40
2022-08-18T08:29:21.688Z,10.45
2022-08-18T08:31:54.075Z,10.13
2022-08-18T08:34:24.173Z,10.77
2022-08-18T08:36:55.787Z,10.82
2022-08-18T08:39:26.925Z,9.95
2022-08-18T08:42:29.196Z,10.35
2022-08-18T08:44:58.862Z,9.93
2022-08-18T08:47:32.671Z,9.80
2022-08-18T08:50:03.468Z,9.93
2022-08-18T08:52:33.804Z,9.63
2022-08-18T08:55:05.185Z,9.65
2022-08-18T08:57:35.581Z,9.43
2022-08-18T09:03:08.406Z,9.70
2022-08-18T09:05:40.175Z,9.82
2022-08-18T09:08:24.456Z,9.85
2022-08-18T09:11:19.015Z,11.05
2022-08-18T09:13:58.886Z,12.18
2022-08-18T09:16:35.739Z,9.50
2022-08-18T09:19:14.008Z,9.35
2022-08-18T09:21:45.498Z,9.52
2022-08-18T09:24:20.228Z,9.68
2022-08-18T09:26:52.676Z,9.70
2022-08-18T09:29:24.153Z,9.48
2022-08-18T09:32:11.537Z,9.25
2022-08-18T09:34:46.458Z,9.68
2022-08-18T09:37:18.296Z,9.23
2022-08-18T09:40:12.782Z,9.38
2022-08-18T09:42:49.928Z,10.05
2022-08-18T09:45:37.365Z,9.50
2022-08-18T09:48:25.530Z,9.73
2022-08-18T09:51:19.343Z,9.23
2022-08-18T09:53:56.687Z,9.57
2022-08-18T09:56:54.506Z,8.98
2022-08-18T09:59:42.960Z,9.07
2022-08-18T10:02:20.130Z,9.57
2022-08-18T10:05:22.492Z,8.60
2022-08-18T10:07:54.256Z,8.57
2022-08-18T10:11:01.478Z,9.23
2022-08-18T10:13:17.814Z,8.90
2022-08-18T10:16:10.461Z,8.80
2022-08-18T10:18:54.335Z,9.68
2022-08-18T10:27:09.382Z,9.85
2022-08-18T10:29:48.386Z,8.65
2022-08-18T10:32:24.788Z,7.95
2022-08-18T10:34:55.534Z,8.13
2022-08-18T10:37:26.348Z,8.68
2022-08-18T10:39:59.471Z,8.27
2022-08-18T10:42:31.704Z,8.48
2022-08-18T10:45:06.720Z,9.20
2022-08-18T10:47:35.410Z,8.73
2022-08-18T10:50:08.692Z,8.75
2022-08-18T10:53:24.045Z,9.40
2022-08-18T10:55:53.008Z,8.90
2022-08-18T10:58:30.264Z,9.32
2022-08-18T11:01:04.877Z,10.05
2022-08-18T11:03:51.061Z,10.15
2022-08-18T11:06:23.533Z,10.80
2022-08-18T11:08:55.235Z,10.48
2022-08-18T11:11:33.122Z,9.23
2022-08-18T11:14:10.193Z,10.15
2022-08-18T11:16:44.555Z,10.00
2022-08-18T11:19:16.867Z,10.30
2022-08-18T11:21:51.684Z,10.38
2022-08-18T11:24:22.174Z,10.88
2022-08-18T11:26:54.929Z,10.55
2022-08-18T11:29:26.928Z,9.93
2022-08-18T11:31:59.611Z,9.65
2022-08-18T11:34:32.656Z,9.98
2022-08-18T11:37:02.854Z,9.57
2022-08-18T11:39:43.984Z,9.68
2022-08-18T11:42:21.795Z,9.68
2022-08-18T11:44:55.685Z,10.68
2022-08-18T11:47:27.755Z,9.48
2022-08-18T11:49:59.622Z,10.95
2022-08-18T11:52:34.549Z,10.55
2022-08-18T11:57:59.526Z,9.90
2022-08-18T12:00:42.840Z,10.38
2022-08-18T12:03:16.488Z,9.38
2022-08-18T12:05:54.136Z,9.40
2022-08-18T12:08:56.401Z,10.45
2022-08-18T12:11:26.714Z,9.50
2022-08-18T12:14:31.799Z,10.60
2022-08-18T12:16:54.110Z,9.90
2022-08-18T12:19:24.429Z,9.77
2022-08-18T12:21:55.391Z,10.25
2022-08-18T12:24:26.435Z,10.45
2022-08-18T12:27:12.271Z,9.50
2022-08-18T12:29:51.740Z,9.63
2022-08-18T12:32:49.894Z,10.32
2022-08-18T12:35:11.346Z,10.00
2022-08-18T12:37:58.966Z,10.15
2022-08-18T12:40:29.623Z,9.63
2022-08-18T12:42:58.237Z,9.50
2022-08-18T12:45:31.157Z,9.23
2022-08-18T12:48:04.210Z,9.63
2022-08-18T12:50:37.613Z,9.43
2022-08-18T12:53:11.115Z,10.20
2022-08-18T12:55:43.715Z,9.15
2022-08-18T12:58:13.883Z,9.70
2022-08-18T13:00:44.806Z,9.57
2022-08-18T13:03:13.152Z,9.52
2022-08-18T13:05:41.490Z,9.80
2022-08-18T13:08:13.707Z,9.07
2022-08-18T13:11:00.385Z,9.55
2022-08-18T13:13:43.236Z,9.20
2022-08-18T13:16:16.336Z,9.27
2022-08-18T13:18:58.747Z,9.10
2022-08-18T13:21:27.891Z,9.20
2022-08-18T13:24:07.762Z,9.32
2022-08-18T13:26:38.722Z,9.55
2022-08-18T13:29:10.495Z,8.90
2022-08-18T13:31:42.395Z,8.90
2022-08-18T13:34:24.397Z,9.57
2022-08-18T13:36:52.828Z,8.65
2022-08-18T13:39:22.672Z,8.82
2022-08-18T13:41:53.344Z,9.10
2022-08-18T13:44:22.862Z,8.43
2022-08-18T13:46:56.144Z,9.55
2022-08-18T13:49:30.400Z,9.00
2022-08-18T13:52:00.829Z,9.60
2022-08-18T13:54:35.075Z,9.85
2022-08-18T13:57:04.270Z,9.38
2022-08-18T13:59:34.062Z,8.52
2022-08-18T14:02:08.571Z,8.70
2022-08-18T14:04:38.583Z,8.95
2022-08-18T14:07:10.405Z,8.85
2022-08-18T14:09:40.857Z,8.50
2022-08-18T14:12:15.293Z,8.93
2022-08-18T14:14:44.710Z,8.75
2022-08-18T14:17:14.458Z,8.68
2022-08-18T14:20:01.176Z,8.60
2022-08-18T14:22:48.234Z,8.70
2022-08-18T14:25:34.556Z,9.70
2022-08-18T14:28:03.876Z,9.10
2022-08-18T14:30:32.735Z,8.82
2022-08-18T14:33:02.770Z,8.80
2022-08-18T14:36:04.540Z,8.68
2022-08-18T14:38:20.483Z,8.48
2022-08-18T14:40:50.218Z,8.98
2022-08-18T14:43:21.438Z,8.68
2022-08-18T14:45:53.847Z,9.57
2022-08-18T14:48:27.985Z,9.27
2022-08-18T14:50:58.834Z,9.43
2022-08-18T14:53:29.070Z,9.27
2022-08-18T14:55:59.383Z,8.90
2022-08-18T14:58:29.030Z,8.85
2022-08-18T15:00:57.521Z,9.48
2022-08-18T15:03:28.332Z,9.48
2022-08-18T15:06:04.454Z,9.15
2022-08-18T15:08:35.226Z,9.13
2022-08-18T15:11:06.039Z,8.48
2022-08-18T15:13:40.628Z,9.35
2022-08-18T15:16:13.705Z,8.77
2022-08-18T15:18:42.198Z,8.82
2022-08-18T15:21:38.279Z,8.80
2022-08-18T15:24:25.293Z,8.63
2022-08-18T15:26:58.179Z,8.73
2022-08-18T15:29:32.093Z,8.80
2022-08-18T15:32:05.898Z,8.50
2022-08-18T15:34:47.391Z,8.90
2022-08-18T15:37:22.184Z,8.38
2022-08-18T15:40:00.401Z,8.68
2022-08-18T15:42:28.732Z,8.70
2022-08-18T15:44:57.158Z,8.63
2022-08-18T15:47:26.443Z,8.90
2022-08-18T15:49:55.354Z,8.52
2022-08-18T15:52:27.401Z,7.93
2022-08-18T15:55:02.284Z,8.45
2022-08-18T15:57:39.686Z,8.30
2022-08-18T16:00:12.172Z,8.50
2022-08-18T16:02:44.589Z,8.73
2022-08-18T16:05:16.988Z,8.40
2022-08-18T16:07:47.566Z,8.45
2022-08-18T16:10:16.761Z,8.52
2022-08-18T16:12:46.111Z,7.95
2022-08-18T16:15:15.461Z,8.82
2022-08-18T16:17:48.422Z,8.23
2022-08-18T16:20:18.746Z,8.65
2022-08-18T16:22:48.734Z,8.70
2022-08-18T16:25:17.270Z,7.88
2022-08-18T16:27:45.643Z,8.65
2022-08-18T16:30:15.805Z,8.55
2022-08-18T16:32:45.128Z,8.43
2022-08-18T16:35:13.464Z,8.65
2022-08-18T16:37:42.140Z,8.27
2022-08-18T16:40:12.526Z,7.95
2022-08-18T16:42:40.896Z,7.93
2022-08-18T16:45:09.488Z,8.45
2022-08-18T16:47:39.118Z,7.63
2022-08-18T16:50:08.463Z,8.20
2022-08-18T16:52:36.762Z,7.93
2022-08-18T16:55:05.702Z,8.45
2022-08-18T16:57:55.199Z,8.43
2022-08-18T17:00:41.645Z,8.57
2022-08-18T17:03:28.093Z,9.00
2022-08-18T17:06:03.231Z,8.65
2022-08-18T17:08:34.325Z,8.20
2022-08-18T17:11:02.794Z,8.35
2022-08-18T17:13:32.970Z,8.23
2022-08-18T17:16:01.362Z,8.88
2022-08-18T17:18:30.504Z,8.40
2022-08-18T17:20:59.084Z,8.15
2022-08-18T17:23:27.939Z,8.55
2022-08-18T17:25:57.039Z,8.10
2022-08-18T17:28:27.767Z,8.27
2022-08-18T17:30:57.429Z,9.60
2022-08-18T17:33:27.887Z,9.25
2022-08-18T17:35:58.859Z,8.18
2022-08-18T17:38:28.316Z,8.88
2022-08-18T17:40:58.085Z,9.40
2022-08-18T17:43:29.132Z,8.50
2022-08-18T17:46:00.038Z,8.93
2022-08-18T17:48:29.778Z,8.73
2022-08-18T17:51:18.355Z,9.18
2022-08-18T17:53:46.789Z,9.00
2022-08-18T17:56:19.309Z,9.32
2022-08-18T17:58:50.269Z,9.25
2022-08-18T18:01:20.088Z,9.00
2022-08-18T18:03:48.395Z,9.65
2022-08-18T18:06:20.277Z,9.90
2022-08-18T18:08:49.940Z,10.32
2022-08-18T18:11:18.668Z,9.65
2022-08-18T18:13:46.991Z,10.00
2022-08-18T18:16:25.339Z,9.35
2022-08-18T18:19:01.529Z,9.50
2022-08-18T18:22:01.021Z,9.85
2022-08-18T18:24:23.971Z,9.05
2022-08-18T18:26:53.092Z,10.00
2022-08-18T18:29:29.143Z,9.88
2022-08-18T18:32:04.264Z,9.60
2022-08-18T18:34:35.429Z,10.20
2022-08-18T18:37:04.339Z,10.50
2022-08-18T18:39:35.563Z,9.52
2022-08-18T18:42:17.675Z,9.77
2022-08-18T18:44:52.806Z,10.02
2022-08-18T18:47:33.341Z,10.07
2022-08-18T18:50:04.797Z,10.32
2022-08-18T18:52:39.185Z,10.38
2022-08-18T18:55:09.013Z,11.00
2022-08-18T18:57:39.997Z,10.13
2022-08-18T19:00:18.099Z,9.90
2022-08-18T19:02:58.211Z,10.52
2022-08-18T19:05:29.844Z,10.70
2022-08-18T19:08:20.400Z,10.73
2022-08-18T19:11:01.306Z,10.30
2022-08-18T19:13:35.078Z,9.68
2022-08-18T19:16:09.656Z,10.00
2022-08-18T19:18:44.601Z,10.63
2022-08-18T19:22:05.656Z,11.07
2022-08-18T19:24:22.009Z,11.13
2022-08-18T19:26:51.648Z,11.07
2022-08-18T19:29:24.504Z,10.93
2022-08-18T19:31:57.429Z,11.85
2022-08-18T19:34:30.971Z,10.80
2022-08-18T19:37:02.091Z,12.07
2022-08-18T19:39:34.418Z,11.15
2022-08-18T19:42:04.477Z,10.85
2022-08-18T19:44:36.160Z,11.65
2022-08-18T19:47:08.488Z,11.30
2022-08-18T19:49:45.571Z,11.07
2022-08-18T19:52:45.768Z,13.00
2022-08-18T19:55:13.560Z,12.30
2022-08-18T19:57:51.927Z,11.60
2022-08-18T20:00:24.110Z,11.32
2022-08-18T20:03:00.327Z,11.38
2022-08-18T20:05:38.443Z,11.27
2022-08-18T20:08:21.624Z,11.05
2022-08-18T20:10:55.204Z,10.68
2022-08-18T20:13:35.248Z,11.18
2022-08-18T20:16:15.743Z,10.88
2022-08-18T20:18:44.884Z,11.20
2022-08-18T20:21:36.835Z,10.90
2022-08-18T20:24:18.379Z,11.02
2022-08-18T20:26:49.144Z,11.10
2022-08-18T20:29:18.489Z,10.30
2022-08-18T20:31:54.325Z,10.45
2022-08-18T20:34:23.975Z,10.60
2022-08-18T20:36:53.941Z,11.00
2022-08-18T20:39:33.202Z,10.60
2022-08-18T20:42:01.806Z,11.00
2022-08-18T20:44:48.797Z,10.63
2022-08-18T20:47:35.692Z,11.00
2022-08-18T20:50:12.651Z,11.20
2022-08-18T20:52:47.912Z,11.13
2022-08-18T20:55:21.590Z,11.70
2022-08-18T20:57:55.371Z,12.30
2022-08-18T21:00:27.008Z,11.20
2022-08-18T21:02:56.933Z,11.10
2022-08-18T21:05:28.221Z,11.15
2022-08-18T21:08:03.375Z,12.23
2022-08-18T21:10:32.831Z,11.88
2022-08-18T21:13:02.334Z,11.85
2022-08-18T21:15:32.390Z,12.50
2022-08-18T21:18:01.472Z,11.95
2022-08-18T21:20:30.394Z,11.02
2022-08-18T21:23:04.526Z,11.00
2022-08-18T21:25:33.731Z,11.38
2022-08-18T21:28:04.013Z,11.55
2022-08-18T21:30:32.942Z,11.00
2022-08-18T21:33:02.086Z,11.02
2022-08-18T21:35:32.923Z,10.68
2022-08-18T21:38:03.628Z,10.23
2022-08-18T21:40:38.632Z,10.43
2022-08-18T21:43:07.539Z,10.70
2022-08-18T21:45:45.929Z,10.35
2022-08-18T21:48:16.172Z,10.68
2022-08-18T21:50:50.658Z,10.45
2022-08-18T21:53:21.680Z,10.45
2022-08-18T21:55:52.383Z,10.55
2022-08-18T21:58:32.769Z,10.40
2022-08-18T22:01:12.907Z,11.02
2022-08-18T22:03:50.900Z,10.85
2022-08-18T22:06:24.110Z,11.13
2022-08-18T22:08:53.253Z,11.85
2022-08-18T22:12:00.717Z,12.50
2022-08-18T22:14:35.735Z,12.77
2022-08-18T22:17:23.087Z,13.30
2022-08-18T22:19:51.442Z,12.32
2022-08-18T22:22:38.555Z,12.75
2022-08-18T22:25:07.043Z,11.80
2022-08-18T22:27:36.822Z,12.52
2022-08-18T22:30:05.803Z,12.02
2022-08-18T22:32:35.479Z,12.15
2022-08-18T22:35:03.864Z,12.30
2022-08-18T22:37:33.352Z,12.55
2022-08-18T22:40:02.992Z,12.40
2022-08-18T22:42:33.449Z,12.38
2022-08-18T22:45:04.768Z,12.10
2022-08-18T22:47:34.136Z,12.32
2022-08-18T22:50:13.311Z,11.75
2022-08-18T22:52:42.692Z,12.00
2022-08-18T22:55:12.771Z,11.63
2022-08-18T22:57:43.084Z,11.50
2022-08-18T23:00:14.497Z,11.35
2022-08-18T23:02:43.590Z,11.75
2022-08-18T23:05:12.589Z,12.13
2022-08-18T23:07:40.924Z,11.82
2022-08-18T23:10:13.773Z,11.88
2022-08-18T23:12:42.735Z,11.82
2022-08-18T23:15:12.100Z,11.57
2022-08-18T23:17:42.019Z,12.05
2022-08-18T23:20:11.585Z,12.05
2022-08-18T23:22:40.256Z,12.50
2022-08-18T23:25:09.528Z,12.45
2022-08-18T23:27:37.888Z,11.85
2022-08-18T23:30:06.544Z,11.82
2022-08-18T23:32:34.869Z,11.55
2022-08-18T23:35:04.993Z,12.23
2022-08-18T23:37:33.286Z,10.80
2022-08-18T23:40:01.738Z,11.02
2022-08-18T23:42:31.531Z,11.27
2022-08-18T23:45:03.154Z,11.07
2022-08-18T23:47:31.496Z,11.13
2022-08-18T23:49:59.904Z,11.82
2022-08-18T23:52:29.621Z,11.07
2022-08-18T23:54:57.947Z,12.63
2022-08-18T23:57:26.258Z,11.65
2022-08-18T23:59:54.604Z,11.32
